sensor_id;sensor_type;location;lat;lon;timestamp;temperature;humidity
12152;DHT22;6139;51.274;7.128;2023-03-19T00:00:50;11.10;99.90
12152;DHT22;6139;51.274;7.128;2023-03-19T00:01:50;11.10;99.90
12152;DHT22;6139;51.274;7.128;2023-03-19T00:02:54;11.00;99.90
12152;DHT22;6139;51.274;7.128;2023-03-19T00:03:55;11.00;99.90
12152;DHT22;6139;51.274;7.128;2023-03-19T00:04:57;11.00;99.90
12152;DHT22;6139;51.274;7.128;2023-03-19T00:05:58;11.00;99.90
12152;DHT22;6139;51.274;7.128;2023-03-19T00:07:00;11.00;99.90
12152;DHT22;6139;51.274;7.128;2023-03-19T00:08:01;11.00;99.90
12152;DHT22;6139;51.274;7.128;2023-03-19T00:09:04;10.90;99.90
12152;DHT22;6139;51.274;7.128;2023-03-19T00:10:06;10.90;99.90
12152;DHT22;6139;51.274;7.128;2023-03-19T00:11:10;10.90;99.90
12152;DHT22;6139;51.274;7.128;2023-03-19T00:12:12;10.80;99.90
12152;DHT22;6139;51.274;7.128;2023-03-19T00:13:14;10.80;99.90
12152;DHT22;6139;51.274;7.128;2023-03-19T00:14:15;10.80;99.90
12152;DHT22;6139;51.274;7.128;2023-03-19T00:15:17;10.80;99.90
12152;DHT22;6139;51.274;7.128;2023-03-19T00:16:18;10.80;99.90
12152;DHT22;6139;51.274;7.128;2023-03-19T00:17:21;10.80;99.90
12152;DHT22;6139;51.274;7.128;2023-03-19T00:18:23;10.80;99.90
12152;DHT22;6139;51.274;7.128;2023-03-19T00:19:25;10.90;99.90
12152;DHT22;6139;51.274;7.128;2023-03-19T00:20:26;10.90;94.30
12152;DHT22;6139;51.274;7.128;2023-03-19T00:21:29;10.90;72.50
12152;DHT22;6139;51.274;7.128;2023-03-19T00:22:30;10.90;61.90
12152;DHT22;6139;51.274;7.128;2023-03-19T00:23:32;10.90;68.60
12152;DHT22;6139;51.274;7.128;2023-03-19T00:24:33;10.80;72.80
12152;DHT22;6139;51.274;7.128;2023-03-19T00:25:36;10.80;45.10
12152;DHT22;6139;51.274;7.128;2023-03-19T00:26:37;10.90;50.50
12152;DHT22;6139;51.274;7.128;2023-03-19T00:27:39;10.90;41.70
12152;DHT22;6139;51.274;7.128;2023-03-19T00:28:40;10.90;21.70
12152;DHT22;6139;51.274;7.128;2023-03-19T00:29:42;10.90;23.10
12152;DHT22;6139;51.274;7.128;2023-03-19T00:30:44;10.90;29.40
12152;DHT22;6139;51.274;7.128;2023-03-19T00:31:46;10.90;18.00
12152;DHT22;6139;51.274;7.128;2023-03-19T00:32:48;10.80;20.00
12152;DHT22;6139;51.274;7.128;2023-03-19T00:33:51;10.80;32.50
12152;DHT22;6139;51.274;7.128;2023-03-19T00:34:52;10.80;39.10
12152;DHT22;6139;51.274;7.128;2023-03-19T00:35:54;10.80;27.20
12152;DHT22;6139;51.274;7.128;2023-03-19T00:36:55;10.90;19.90
12152;DHT22;6139;51.274;7.128;2023-03-19T00:37:57;10.80;20.10
12152;DHT22;6139;51.274;7.128;2023-03-19T00:38:58;10.80;11.70
12152;DHT22;6139;51.274;7.128;2023-03-19T00:40:01;10.80;10.50
12152;DHT22;6139;51.274;7.128;2023-03-19T00:41:04;10.80;7.10
12152;DHT22;6139;51.274;7.128;2023-03-19T00:42:08;10.90;1.00
12152;DHT22;6139;51.274;7.128;2023-03-19T00:43:09;10.90;9.90
12152;DHT22;6139;51.274;7.128;2023-03-19T00:44:11;10.90;1.00
12152;DHT22;6139;51.274;7.128;2023-03-19T00:45:12;11.00;1.00
12152;DHT22;6139;51.274;7.128;2023-03-19T00:46:14;11.00;1.00
12152;DHT22;6139;51.274;7.128;2023-03-19T00:47:17;11.00;1.00
12152;DHT22;6139;51.274;7.128;2023-03-19T00:48:20;11.00;1.00
12152;DHT22;6139;51.274;7.128;2023-03-19T00:49:22;11.00;1.00
12152;DHT22;6139;51.274;7.128;2023-03-19T00:50:24;11.00;1.00
12152;DHT22;6139;51.274;7.128;2023-03-19T00:51:26;10.90;1.00
12152;DHT22;6139;51.274;7.128;2023-03-19T00:52:28;10.90;1.00
12152;DHT22;6139;51.274;7.128;2023-03-19T00:53:29;10.90;1.00
12152;DHT22;6139;51.274;7.128;2023-03-19T00:54:32;11.00;1.00
12152;DHT22;6139;51.274;7.128;2023-03-19T00:55:33;11.00;1.00
12152;DHT22;6139;51.274;7.128;2023-03-19T00:56:35;10.90;1.00
12152;DHT22;6139;51.274;7.128;2023-03-19T00:57:36;10.90;1.00
12152;DHT22;6139;51.274;7.128;2023-03-19T00:58:38;10.90;1.00
12152;DHT22;6139;51.274;7.128;2023-03-19T00:59:40;10.90;1.00
12152;DHT22;6139;51.274;7.128;2023-03-19T01:00:42;10.90;1.00
12152;DHT22;6139;51.274;7.128;2023-03-19T01:01:43;10.90;1.00
12152;DHT22;6139;51.274;7.128;2023-03-19T01:02:45;10.80;1.00
12152;DHT22;6139;51.274;7.128;2023-03-19T01:03:46;10.80;1.00
12152;DHT22;6139;51.274;7.128;2023-03-19T01:04:50;10.90;1.00
12152;DHT22;6139;51.274;7.128;2023-03-19T01:05:52;10.80;1.00
12152;DHT22;6139;51.274;7.128;2023-03-19T01:06:53;10.90;1.00
12152;DHT22;6139;51.274;7.128;2023-03-19T01:07:55;10.90;1.00
12152;DHT22;6139;51.274;7.128;2023-03-19T01:08:56;10.80;1.60
12152;DHT22;6139;51.274;7.128;2023-03-19T01:09:59;10.80;1.80
12152;DHT22;6139;51.274;7.128;2023-03-19T01:11:07;10.80;4.00
12152;DHT22;6139;51.274;7.128;2023-03-19T01:12:09;10.80;1.00
12152;DHT22;6139;51.274;7.128;2023-03-19T01:13:11;10.80;7.70
12152;DHT22;6139;51.274;7.128;2023-03-19T01:14:14;10.90;1.00
12152;DHT22;6139;51.274;7.128;2023-03-19T01:15:16;10.90;1.00
12152;DHT22;6139;51.274;7.128;2023-03-19T01:16:18;10.80;1.00
12152;DHT22;6139;51.274;7.128;2023-03-19T01:17:20;10.80;1.00
12152;DHT22;6139;51.274;7.128;2023-03-19T01:18:22;10.80;1.00
12152;DHT22;6139;51.274;7.128;2023-03-19T01:19:23;10.80;1.00
12152;DHT22;6139;51.274;7.128;2023-03-19T01:20:26;10.80;1.00
12152;DHT22;6139;51.274;7.128;2023-03-19T01:21:27;10.80;1.00
12152;DHT22;6139;51.274;7.128;2023-03-19T01:22:30;10.80;1.00
12152;DHT22;6139;51.274;7.128;2023-03-19T01:23:33;10.80;1.00
12152;DHT22;6139;51.274;7.128;2023-03-19T01:24:35;10.80;1.00
12152;DHT22;6139;51.274;7.128;2023-03-19T01:25:38;10.80;1.00
12152;DHT22;6139;51.274;7.128;2023-03-19T01:26:40;10.80;1.00
12152;DHT22;6139;51.274;7.128;2023-03-19T01:27:50;10.70;1.00
12152;DHT22;6139;51.274;7.128;2023-03-19T01:28:52;10.70;1.00
12152;DHT22;6139;51.274;7.128;2023-03-19T01:29:55;10.70;1.00
12152;DHT22;6139;51.274;7.128;2023-03-19T01:31:20;10.70;1.00
12152;DHT22;6139;51.274;7.128;2023-03-19T01:32:42;10.70;1.00
12152;DHT22;6139;51.274;7.128;2023-03-19T01:34:04;10.70;1.00
12152;DHT22;6139;51.274;7.128;2023-03-19T01:35:18;10.80;1.00
12152;DHT22;6139;51.274;7.128;2023-03-19T01:36:22;10.80;1.00
12152;DHT22;6139;51.274;7.128;2023-03-19T01:37:36;10.80;1.00
12152;DHT22;6139;51.274;7.128;2023-03-19T01:38:37;10.80;1.00
12152;DHT22;6139;51.274;7.128;2023-03-19T01:39:44;10.80;1.00
12152;DHT22;6139;51.274;7.128;2023-03-19T01:40:47;10.70;1.00
12152;DHT22;6139;51.274;7.128;2023-03-19T01:41:49;10.80;1.00
12152;DHT22;6139;51.274;7.128;2023-03-19T01:43:14;10.80;1.00
12152;DHT22;6139;51.274;7.128;2023-03-19T01:44:31;10.80;1.00
12152;DHT22;6139;51.274;7.128;2023-03-19T01:45:54;10.80;1.00
12152;DHT22;6139;51.274;7.128;2023-03-19T01:47:22;10.80;1.00
12152;DHT22;6139;51.274;7.128;2023-03-19T01:48:48;10.80;1.00
12152;DHT22;6139;51.274;7.128;2023-03-19T01:49:54;10.80;1.00
12152;DHT22;6139;51.274;7.128;2023-03-19T01:50:57;10.80;1.00
12152;DHT22;6139;51.274;7.128;2023-03-19T01:52:17;10.80;1.00
12152;DHT22;6139;51.274;7.128;2023-03-19T01:53:45;10.80;1.00
12152;DHT22;6139;51.274;7.128;2023-03-19T01:54:54;10.90;1.00
12152;DHT22;6139;51.274;7.128;2023-03-19T01:56:17;10.80;1.00
12152;DHT22;6139;51.274;7.128;2023-03-19T01:57:37;10.80;1.00
12152;DHT22;6139;51.274;7.128;2023-03-19T01:58:52;10.80;1.00
12152;DHT22;6139;51.274;7.128;2023-03-19T02:00:14;10.80;1.00
12152;DHT22;6139;51.274;7.128;2023-03-19T02:01:19;10.80;1.00
12152;DHT22;6139;51.274;7.128;2023-03-19T02:02:27;10.70;1.00
12152;DHT22;6139;51.274;7.128;2023-03-19T02:03:32;10.70;1.00
12152;DHT22;6139;51.274;7.128;2023-03-19T02:04:51;10.70;1.00
12152;DHT22;6139;51.274;7.128;2023-03-19T02:05:55;10.70;1.00
12152;DHT22;6139;51.274;7.128;2023-03-19T02:06:58;10.70;1.00
12152;DHT22;6139;51.274;7.128;2023-03-19T02:08:05;10.70;1.00
12152;DHT22;6139;51.274;7.128;2023-03-19T02:09:08;10.70;1.00
12152;DHT22;6139;51.274;7.128;2023-03-19T02:10:12;10.70;1.00
12152;DHT22;6139;51.274;7.128;2023-03-19T02:11:15;10.70;1.00
12152;DHT22;6139;51.274;7.128;2023-03-19T02:12:16;10.70;1.00
12152;DHT22;6139;51.274;7.128;2023-03-19T02:13:19;10.70;1.00
12152;DHT22;6139;51.274;7.128;2023-03-19T02:14:20;10.70;1.00
12152;DHT22;6139;51.274;7.128;2023-03-19T02:15:22;10.60;1.00
12152;DHT22;6139;51.274;7.128;2023-03-19T02:16:23;10.60;1.00
12152;DHT22;6139;51.274;7.128;2023-03-19T02:17:27;10.60;1.00
12152;DHT22;6139;51.274;7.128;2023-03-19T02:18:29;10.60;1.00
12152;DHT22;6139;51.274;7.128;2023-03-19T02:19:37;10.60;1.00
12152;DHT22;6139;51.274;7.128;2023-03-19T02:20:44;10.60;1.00
12152;DHT22;6139;51.274;7.128;2023-03-19T02:21:50;10.60;1.00
12152;DHT22;6139;51.274;7.128;2023-03-19T02:23:00;10.60;1.00
12152;DHT22;6139;51.274;7.128;2023-03-19T02:24:09;10.60;1.00
12152;DHT22;6139;51.274;7.128;2023-03-19T02:25:38;10.70;1.00
12152;DHT22;6139;51.274;7.128;2023-03-19T02:26:43;10.70;1.00
12152;DHT22;6139;51.274;7.128;2023-03-19T02:27:45;10.60;1.00
12152;DHT22;6139;51.274;7.128;2023-03-19T02:28:48;10.60;1.00
12152;DHT22;6139;51.274;7.128;2023-03-19T02:29:55;10.60;1.00
12152;DHT22;6139;51.274;7.128;2023-03-19T02:30:58;10.60;1.00
12152;DHT22;6139;51.274;7.128;2023-03-19T02:31:59;10.60;1.00
12152;DHT22;6139;51.274;7.128;2023-03-19T02:33:03;10.60;1.00
12152;DHT22;6139;51.274;7.128;2023-03-19T02:34:14;10.70;1.00
12152;DHT22;6139;51.274;7.128;2023-03-19T02:35:29;10.70;1.00
12152;DHT22;6139;51.274;7.128;2023-03-19T02:36:34;10.70;1.00
12152;DHT22;6139;51.274;7.128;2023-03-19T02:37:37;10.70;1.00
12152;DHT22;6139;51.274;7.128;2023-03-19T02:38:40;10.70;1.00
12152;DHT22;6139;51.274;7.128;2023-03-19T02:39:49;10.70;1.00
12152;DHT22;6139;51.274;7.128;2023-03-19T02:40:55;10.70;1.00
12152;DHT22;6139;51.274;7.128;2023-03-19T02:42:00;10.80;1.00
12152;DHT22;6139;51.274;7.128;2023-03-19T02:43:04;10.80;1.00
12152;DHT22;6139;51.274;7.128;2023-03-19T02:44:07;10.80;1.00
12152;DHT22;6139;51.274;7.128;2023-03-19T02:45:11;10.70;1.00
12152;DHT22;6139;51.274;7.128;2023-03-19T02:46:13;10.70;1.00
12152;DHT22;6139;51.274;7.128;2023-03-19T02:47:15;10.70;1.00
12152;DHT22;6139;51.274;7.128;2023-03-19T02:48:16;10.70;1.00
12152;DHT22;6139;51.274;7.128;2023-03-19T02:49:18;10.80;1.00
12152;DHT22;6139;51.274;7.128;2023-03-19T02:50:19;10.80;1.00
12152;DHT22;6139;51.274;7.128;2023-03-19T02:51:22;10.80;1.00
12152;DHT22;6139;51.274;7.128;2023-03-19T02:52:23;10.80;1.00
12152;DHT22;6139;51.274;7.128;2023-03-19T02:53:25;10.80;1.00
12152;DHT22;6139;51.274;7.128;2023-03-19T02:54:26;10.80;1.00
12152;DHT22;6139;51.274;7.128;2023-03-19T02:55:28;10.80;1.00
12152;DHT22;6139;51.274;7.128;2023-03-19T02:56:30;10.80;1.00
12152;DHT22;6139;51.274;7.128;2023-03-19T02:57:33;10.80;1.00
12152;DHT22;6139;51.274;7.128;2023-03-19T02:58:34;10.80;1.00
12152;DHT22;6139;51.274;7.128;2023-03-19T02:59:36;10.80;1.00
12152;DHT22;6139;51.274;7.128;2023-03-19T03:00:39;10.80;1.00
12152;DHT22;6139;51.274;7.128;2023-03-19T03:01:41;10.80;1.00
12152;DHT22;6139;51.274;7.128;2023-03-19T03:02:42;10.90;1.00
12152;DHT22;6139;51.274;7.128;2023-03-19T03:03:44;10.90;1.00
12152;DHT22;6139;51.274;7.128;2023-03-19T03:04:45;10.90;1.00
12152;DHT22;6139;51.274;7.128;2023-03-19T03:05:46;10.90;1.00
12152;DHT22;6139;51.274;7.128;2023-03-19T03:06:47;10.90;1.00
12152;DHT22;6139;51.274;7.128;2023-03-19T03:07:50;10.90;1.00
12152;DHT22;6139;51.274;7.128;2023-03-19T03:08:51;10.90;1.00
12152;DHT22;6139;51.274;7.128;2023-03-19T03:09:53;10.90;1.00
12152;DHT22;6139;51.274;7.128;2023-03-19T03:10:54;10.90;1.00
12152;DHT22;6139;51.274;7.128;2023-03-19T03:11:56;10.90;1.00
12152;DHT22;6139;51.274;7.128;2023-03-19T03:12:58;10.90;1.00
12152;DHT22;6139;51.274;7.128;2023-03-19T03:14:01;11.00;1.00
12152;DHT22;6139;51.274;7.128;2023-03-19T03:15:02;10.90;1.00
12152;DHT22;6139;51.274;7.128;2023-03-19T03:16:04;10.90;1.00
12152;DHT22;6139;51.274;7.128;2023-03-19T03:17:06;10.90;1.00
12152;DHT22;6139;51.274;7.128;2023-03-19T03:18:08;10.90;1.00
12152;DHT22;6139;51.274;7.128;2023-03-19T03:19:09;10.90;1.00
12152;DHT22;6139;51.274;7.128;2023-03-19T03:20:12;10.90;1.00
12152;DHT22;6139;51.274;7.128;2023-03-19T03:21:13;10.90;1.00
12152;DHT22;6139;51.274;7.128;2023-03-19T03:22:19;10.90;1.00
12152;DHT22;6139;51.274;7.128;2023-03-19T03:23:21;10.90;1.00
12152;DHT22;6139;51.274;7.128;2023-03-19T03:24:23;10.90;1.00
12152;DHT22;6139;51.274;7.128;2023-03-19T03:25:24;10.90;1.00
12152;DHT22;6139;51.274;7.128;2023-03-19T03:26:26;10.90;1.00
12152;DHT22;6139;51.274;7.128;2023-03-19T03:27:27;10.80;1.00
12152;DHT22;6139;51.274;7.128;2023-03-19T03:28:30;10.80;1.00
12152;DHT22;6139;51.274;7.128;2023-03-19T03:29:31;10.90;1.00
12152;DHT22;6139;51.274;7.128;2023-03-19T03:30:33;10.90;1.00
12152;DHT22;6139;51.274;7.128;2023-03-19T03:31:34;10.90;1.00
12152;DHT22;6139;51.274;7.128;2023-03-19T03:32:37;10.90;16.30
12152;DHT22;6139;51.274;7.128;2023-03-19T03:33:38;10.90;6.80
12152;DHT22;6139;51.274;7.128;2023-03-19T03:34:41;10.90;1.00
12152;DHT22;6139;51.274;7.128;2023-03-19T03:35:42;10.90;23.10
12152;DHT22;6139;51.274;7.128;2023-03-19T03:36:44;10.90;13.50
12152;DHT22;6139;51.274;7.128;2023-03-19T03:37:47;10.90;17.50
12152;DHT22;6139;51.274;7.128;2023-03-19T03:38:49;10.90;27.90
12152;DHT22;6139;51.274;7.128;2023-03-19T03:39:50;10.90;31.10
12152;DHT22;6139;51.274;7.128;2023-03-19T03:40:53;10.80;36.20
12152;DHT22;6139;51.274;7.128;2023-03-19T03:41:57;10.80;16.20
12152;DHT22;6139;51.274;7.128;2023-03-19T03:43:00;10.80;30.00
12152;DHT22;6139;51.274;7.128;2023-03-19T03:44:03;10.80;24.80
12152;DHT22;6139;51.274;7.128;2023-03-19T03:45:09;10.80;40.90
12152;DHT22;6139;51.274;7.128;2023-03-19T03:46:11;10.80;34.40
12152;DHT22;6139;51.274;7.128;2023-03-19T03:47:13;10.80;31.50
12152;DHT22;6139;51.274;7.128;2023-03-19T03:48:14;10.80;39.30
12152;DHT22;6139;51.274;7.128;2023-03-19T03:49:16;10.80;35.30
12152;DHT22;6139;51.274;7.128;2023-03-19T03:50:17;10.80;37.60
12152;DHT22;6139;51.274;7.128;2023-03-19T03:51:21;10.80;45.00
12152;DHT22;6139;51.274;7.128;2023-03-19T03:52:22;10.80;38.30
12152;DHT22;6139;51.274;7.128;2023-03-19T03:53:24;10.80;41.70
12152;DHT22;6139;51.274;7.128;2023-03-19T03:54:25;10.80;36.10
12152;DHT22;6139;51.274;7.128;2023-03-19T03:55:27;10.80;51.80
12152;DHT22;6139;51.274;7.128;2023-03-19T03:56:28;10.80;45.50
12152;DHT22;6139;51.274;7.128;2023-03-19T03:57:31;10.80;51.60
12152;DHT22;6139;51.274;7.128;2023-03-19T03:58:32;10.80;71.40
12152;DHT22;6139;51.274;7.128;2023-03-19T03:59:35;10.70;67.40
12152;DHT22;6139;51.274;7.128;2023-03-19T04:00:36;10.70;58.60
12152;DHT22;6139;51.274;7.128;2023-03-19T04:01:38;10.70;52.50
12152;DHT22;6139;51.274;7.128;2023-03-19T04:02:39;10.70;51.80
12152;DHT22;6139;51.274;7.128;2023-03-19T04:03:45;10.70;50.80
12152;DHT22;6139;51.274;7.128;2023-03-19T04:04:46;10.70;58.40
12152;DHT22;6139;51.274;7.128;2023-03-19T04:05:49;10.70;58.30
12152;DHT22;6139;51.274;7.128;2023-03-19T04:06:51;10.70;45.40
12152;DHT22;6139;51.274;7.128;2023-03-19T04:08:15;10.80;49.90
12152;DHT22;6139;51.274;7.128;2023-03-19T04:09:16;10.80;56.50
12152;DHT22;6139;51.274;7.128;2023-03-19T04:10:19;10.70;47.10
12152;DHT22;6139;51.274;7.128;2023-03-19T04:11:21;10.70;58.80
12152;DHT22;6139;51.274;7.128;2023-03-19T04:12:23;10.70;59.20
12152;DHT22;6139;51.274;7.128;2023-03-19T04:13:25;10.70;58.30
12152;DHT22;6139;51.274;7.128;2023-03-19T04:14:27;10.70;76.40
12152;DHT22;6139;51.274;7.128;2023-03-19T04:15:32;10.70;71.00
12152;DHT22;6139;51.274;7.128;2023-03-19T04:16:34;10.70;90.90
12152;DHT22;6139;51.274;7.128;2023-03-19T04:17:36;10.70;91.30
12152;DHT22;6139;51.274;7.128;2023-03-19T04:18:38;10.70;93.80
12152;DHT22;6139;51.274;7.128;2023-03-19T04:19:40;10.60;99.60
12152;DHT22;6139;51.274;7.128;2023-03-19T04:20:42;10.60;99.90
12152;DHT22;6139;51.274;7.128;2023-03-19T04:21:45;10.60;99.90
12152;DHT22;6139;51.274;7.128;2023-03-19T04:22:46;10.60;99.90
12152;DHT22;6139;51.274;7.128;2023-03-19T04:23:48;10.60;99.90
12152;DHT22;6139;51.274;7.128;2023-03-19T04:24:49;10.70;99.90
12152;DHT22;6139;51.274;7.128;2023-03-19T04:25:51;10.60;99.90
12152;DHT22;6139;51.274;7.128;2023-03-19T04:26:52;10.60;99.90
12152;DHT22;6139;51.274;7.128;2023-03-19T04:27:56;10.60;99.90
12152;DHT22;6139;51.274;7.128;2023-03-19T04:28:57;10.60;99.90
12152;DHT22;6139;51.274;7.128;2023-03-19T04:30:00;10.60;99.90
12152;DHT22;6139;51.274;7.128;2023-03-19T04:31:05;10.60;99.90
12152;DHT22;6139;51.274;7.128;2023-03-19T04:32:11;10.60;99.90
12152;DHT22;6139;51.274;7.128;2023-03-19T04:33:13;10.60;99.90
12152;DHT22;6139;51.274;7.128;2023-03-19T04:34:14;10.60;99.90
12152;DHT22;6139;51.274;7.128;2023-03-19T04:35:16;10.60;99.90
12152;DHT22;6139;51.274;7.128;2023-03-19T04:36:18;10.60;98.50
12152;DHT22;6139;51.274;7.128;2023-03-19T04:37:21;10.60;95.70
12152;DHT22;6139;51.274;7.128;2023-03-19T04:38:25;10.60;99.90
12152;DHT22;6139;51.274;7.128;2023-03-19T04:39:27;10.60;99.90
12152;DHT22;6139;51.274;7.128;2023-03-19T04:40:28;10.60;99.90
12152;DHT22;6139;51.274;7.128;2023-03-19T04:41:30;10.60;99.90
12152;DHT22;6139;51.274;7.128;2023-03-19T04:42:51;10.60;99.90
12152;DHT22;6139;51.274;7.128;2023-03-19T04:44:03;10.60;84.00
12152;DHT22;6139;51.274;7.128;2023-03-19T04:45:05;10.60;92.30
12152;DHT22;6139;51.274;7.128;2023-03-19T04:46:09;10.60;97.80
12152;DHT22;6139;51.274;7.128;2023-03-19T04:47:10;10.60;99.90
12152;DHT22;6139;51.274;7.128;2023-03-19T04:48:22;10.60;91.10
12152;DHT22;6139;51.274;7.128;2023-03-19T04:49:26;10.60;99.30
12152;DHT22;6139;51.274;7.128;2023-03-19T04:50:30;10.70;96.00
12152;DHT22;6139;51.274;7.128;2023-03-19T04:51:31;10.70;72.20
12152;DHT22;6139;51.274;7.128;2023-03-19T04:52:33;10.70;80.10
12152;DHT22;6139;51.274;7.128;2023-03-19T04:53:36;10.60;80.00
12152;DHT22;6139;51.274;7.128;2023-03-19T04:54:39;10.60;92.80
12152;DHT22;6139;51.274;7.128;2023-03-19T04:55:42;10.60;94.50
12152;DHT22;6139;51.274;7.128;2023-03-19T04:56:50;10.60;91.10
12152;DHT22;6139;51.274;7.128;2023-03-19T04:57:55;10.60;86.70
12152;DHT22;6139;51.274;7.128;2023-03-19T04:59:01;10.60;80.40
12152;DHT22;6139;51.274;7.128;2023-03-19T05:00:03;10.70;83.50
12152;DHT22;6139;51.274;7.128;2023-03-19T05:01:09;10.70;71.70
12152;DHT22;6139;51.274;7.128;2023-03-19T05:02:30;10.60;90.10
12152;DHT22;6139;51.274;7.128;2023-03-19T05:03:31;10.60;96.50
12152;DHT22;6139;51.274;7.128;2023-03-19T05:04:33;10.60;96.30
12152;DHT22;6139;51.274;7.128;2023-03-19T05:05:40;10.60;99.90
12152;DHT22;6139;51.274;7.128;2023-03-19T05:06:42;10.60;97.60
12152;DHT22;6139;51.274;7.128;2023-03-19T05:07:44;10.60;96.80
12152;DHT22;6139;51.274;7.128;2023-03-19T05:08:45;10.60;98.30
12152;DHT22;6139;51.274;7.128;2023-03-19T05:09:49;10.60;99.90
12152;DHT22;6139;51.274;7.128;2023-03-19T05:10:51;10.60;96.50
12152;DHT22;6139;51.274;7.128;2023-03-19T05:11:53;10.60;99.90
12152;DHT22;6139;51.274;7.128;2023-03-19T05:12:56;10.60;96.90
12152;DHT22;6139;51.274;7.128;2023-03-19T05:13:58;10.60;98.00
12152;DHT22;6139;51.274;7.128;2023-03-19T05:15:05;10.60;99.90
12152;DHT22;6139;51.274;7.128;2023-03-19T05:16:12;10.60;99.90
12152;DHT22;6139;51.274;7.128;2023-03-19T05:17:13;10.60;97.80
12152;DHT22;6139;51.274;7.128;2023-03-19T05:18:35;10.60;99.90
12152;DHT22;6139;51.274;7.128;2023-03-19T05:19:37;10.60;99.90
12152;DHT22;6139;51.274;7.128;2023-03-19T05:20:42;10.60;98.90
12152;DHT22;6139;51.274;7.128;2023-03-19T05:21:50;10.60;99.30
12152;DHT22;6139;51.274;7.128;2023-03-19T05:22:57;10.70;99.90
12152;DHT22;6139;51.274;7.128;2023-03-19T05:24:09;10.60;99.90
12152;DHT22;6139;51.274;7.128;2023-03-19T05:25:11;10.60;99.90
12152;DHT22;6139;51.274;7.128;2023-03-19T05:26:14;10.60;99.90
12152;DHT22;6139;51.274;7.128;2023-03-19T05:27:45;10.60;99.90
12152;DHT22;6139;51.274;7.128;2023-03-19T05:28:53;10.60;99.90
12152;DHT22;6139;51.274;7.128;2023-03-19T05:30:03;10.60;99.90
12152;DHT22;6139;51.274;7.128;2023-03-19T05:31:27;10.60;99.90
12152;DHT22;6139;51.274;7.128;2023-03-19T05:32:28;10.60;99.90
12152;DHT22;6139;51.274;7.128;2023-03-19T05:33:33;10.60;99.90
12152;DHT22;6139;51.274;7.128;2023-03-19T05:34:34;10.60;99.90
12152;DHT22;6139;51.274;7.128;2023-03-19T05:35:37;10.60;99.90
12152;DHT22;6139;51.274;7.128;2023-03-19T05:36:42;10.60;99.90
12152;DHT22;6139;51.274;7.128;2023-03-19T05:37:50;10.60;99.90
12152;DHT22;6139;51.274;7.128;2023-03-19T05:38:51;10.60;99.90
12152;DHT22;6139;51.274;7.128;2023-03-19T05:39:59;10.60;99.90
12152;DHT22;6139;51.274;7.128;2023-03-19T05:41:03;10.60;99.90
12152;DHT22;6139;51.274;7.128;2023-03-19T05:42:13;10.60;99.90
12152;DHT22;6139;51.274;7.128;2023-03-19T05:43:16;10.60;99.90
12152;DHT22;6139;51.274;7.128;2023-03-19T05:44:17;10.60;99.90
12152;DHT22;6139;51.274;7.128;2023-03-19T05:45:30;10.60;99.90
12152;DHT22;6139;51.274;7.128;2023-03-19T05:46:37;10.60;99.90
12152;DHT22;6139;51.274;7.128;2023-03-19T05:47:40;10.60;99.90
12152;DHT22;6139;51.274;7.128;2023-03-19T05:48:41;10.60;99.90
12152;DHT22;6139;51.274;7.128;2023-03-19T05:49:43;10.60;92.30
12152;DHT22;6139;51.274;7.128;2023-03-19T05:50:44;10.70;94.70
12152;DHT22;6139;51.274;7.128;2023-03-19T05:51:52;10.70;98.30
12152;DHT22;6139;51.274;7.128;2023-03-19T05:52:53;10.70;96.60
12152;DHT22;6139;51.274;7.128;2023-03-19T05:53:56;10.70;84.90
12152;DHT22;6139;51.274;7.128;2023-03-19T05:55:10;10.70;77.60
12152;DHT22;6139;51.274;7.128;2023-03-19T05:56:16;10.70;93.40
12152;DHT22;6139;51.274;7.128;2023-03-19T05:57:30;10.70;91.30
12152;DHT22;6139;51.274;7.128;2023-03-19T05:58:40;10.70;89.10
12152;DHT22;6139;51.274;7.128;2023-03-19T05:59:41;10.70;90.90
12152;DHT22;6139;51.274;7.128;2023-03-19T06:01:10;10.70;99.90
12152;DHT22;6139;51.274;7.128;2023-03-19T06:02:13;10.60;92.80
12152;DHT22;6139;51.274;7.128;2023-03-19T06:03:15;10.60;97.10
12152;DHT22;6139;51.274;7.128;2023-03-19T06:04:22;10.60;99.90
12152;DHT22;6139;51.274;7.128;2023-03-19T06:05:24;10.60;99.90
12152;DHT22;6139;51.274;7.128;2023-03-19T06:06:29;10.60;99.90
12152;DHT22;6139;51.274;7.128;2023-03-19T06:07:31;10.60;99.90
12152;DHT22;6139;51.274;7.128;2023-03-19T06:08:34;10.60;98.40
12152;DHT22;6139;51.274;7.128;2023-03-19T06:09:54;10.60;99.90
12152;DHT22;6139;51.274;7.128;2023-03-19T06:10:56;10.60;99.90
12152;DHT22;6139;51.274;7.128;2023-03-19T06:11:59;10.60;99.90
12152;DHT22;6139;51.274;7.128;2023-03-19T06:13:18;10.60;99.90
12152;DHT22;6139;51.274;7.128;2023-03-19T06:14:41;10.60;99.90
12152;DHT22;6139;51.274;7.128;2023-03-19T06:16:03;10.60;99.90
12152;DHT22;6139;51.274;7.128;2023-03-19T06:17:26;10.60;99.90
12152;DHT22;6139;51.274;7.128;2023-03-19T06:18:32;10.60;99.90
12152;DHT22;6139;51.274;7.128;2023-03-19T06:19:36;10.60;99.90
12152;DHT22;6139;51.274;7.128;2023-03-19T06:20:38;10.60;99.90
12152;DHT22;6139;51.274;7.128;2023-03-19T06:21:39;10.60;99.90
12152;DHT22;6139;51.274;7.128;2023-03-19T06:22:42;10.60;99.90
12152;DHT22;6139;51.274;7.128;2023-03-19T06:23:43;10.60;99.90
12152;DHT22;6139;51.274;7.128;2023-03-19T06:24:49;10.60;99.90
12152;DHT22;6139;51.274;7.128;2023-03-19T06:25:50;10.60;99.90
12152;DHT22;6139;51.274;7.128;2023-03-19T06:26:54;10.60;99.90
12152;DHT22;6139;51.274;7.128;2023-03-19T06:27:56;10.60;99.90
12152;DHT22;6139;51.274;7.128;2023-03-19T06:29:05;10.60;99.90
12152;DHT22;6139;51.274;7.128;2023-03-19T06:30:08;10.60;99.90
12152;DHT22;6139;51.274;7.128;2023-03-19T06:31:09;10.60;99.90
12152;DHT22;6139;51.274;7.128;2023-03-19T06:32:36;10.60;99.90
12152;DHT22;6139;51.274;7.128;2023-03-19T06:33:43;10.60;99.90
12152;DHT22;6139;51.274;7.128;2023-03-19T06:34:44;10.60;99.90
12152;DHT22;6139;51.274;7.128;2023-03-19T06:35:46;10.60;99.90
12152;DHT22;6139;51.274;7.128;2023-03-19T06:36:48;10.60;99.90
12152;DHT22;6139;51.274;7.128;2023-03-19T06:37:51;10.60;99.90
12152;DHT22;6139;51.274;7.128;2023-03-19T06:38:53;10.60;99.90
12152;DHT22;6139;51.274;7.128;2023-03-19T06:39:54;10.60;99.90
12152;DHT22;6139;51.274;7.128;2023-03-19T06:40:56;10.60;99.90
12152;DHT22;6139;51.274;7.128;2023-03-19T06:41:58;10.60;99.90
12152;DHT22;6139;51.274;7.128;2023-03-19T06:43:01;10.60;99.90
12152;DHT22;6139;51.274;7.128;2023-03-19T06:44:03;10.70;99.90
12152;DHT22;6139;51.274;7.128;2023-03-19T06:45:05;10.70;99.90
12152;DHT22;6139;51.274;7.128;2023-03-19T06:46:08;10.70;99.90
12152;DHT22;6139;51.274;7.128;2023-03-19T06:47:10;10.70;99.90
12152;DHT22;6139;51.274;7.128;2023-03-19T06:48:15;10.70;99.90
12152;DHT22;6139;51.274;7.128;2023-03-19T06:49:17;10.70;99.50
12152;DHT22;6139;51.274;7.128;2023-03-19T06:50:19;10.70;99.90
12152;DHT22;6139;51.274;7.128;2023-03-19T06:51:20;10.70;99.90
12152;DHT22;6139;51.274;7.128;2023-03-19T06:52:22;10.70;97.80
12152;DHT22;6139;51.274;7.128;2023-03-19T06:53:23;10.70;99.20
12152;DHT22;6139;51.274;7.128;2023-03-19T06:54:25;10.70;99.90
12152;DHT22;6139;51.274;7.128;2023-03-19T06:55:26;10.70;99.90
12152;DHT22;6139;51.274;7.128;2023-03-19T06:56:30;10.70;99.90
12152;DHT22;6139;51.274;7.128;2023-03-19T06:57:31;10.70;99.20